createdAt,value
2022-08-26T00:01:54.248Z,71.04
2022-08-26T00:04:23.829Z,71.54
2022-08-26T00:06:51.792Z,72.12
2022-08-26T00:09:19.376Z,72.59
2022-08-26T00:11:46.608Z,73.07
2022-08-26T00:14:16.533Z,73.20
2022-08-26T00:16:47.838Z,72.85
2022-08-26T00:19:20.963Z,73.03
2022-08-26T00:21:50.078Z,73.31
2022-08-26T00:24:20.492Z,73.50
2022-08-26T00:26:49.247Z,73.66
2022-08-26T00:29:17.293Z,73.85
2022-08-26T00:31:45.092Z,74.26
2022-08-26T00:34:13.912Z,73.04
2022-08-26T00:36:41.177Z,72.48
2022-08-26T00:39:09.397Z,71.86
2022-08-26T00:41:40.518Z,71.89
2022-08-26T00:44:11.230Z,72.34
2022-08-26T00:46:49.463Z,71.96
2022-08-26T00:49:42.992Z,72.00
2022-08-26T00:52:15.983Z,71.67
2022-08-26T00:55:00.805Z,71.54
2022-08-26T00:57:32.097Z,71.77
2022-08-26T01:00:01.523Z,71.90
2022-08-26T01:02:29.492Z,72.04
2022-08-26T01:05:00.905Z,71.95
2022-08-26T01:07:32.309Z,71.80
2022-08-26T01:10:05.899Z,72.02
2022-08-26T01:12:40.163Z,71.83
2022-08-26T01:15:10.384Z,71.50
2022-08-26T01:17:39.699Z,70.93
2022-08-26T01:20:17.987Z,71.35
2022-08-26T01:22:54.165Z,70.82
2022-08-26T01:25:24.253Z,71.99
2022-08-26T01:27:52.674Z,72.44
2022-08-26T01:30:21.170Z,73.04
2022-08-26T01:32:50.616Z,73.15
2022-08-26T01:35:18.472Z,73.24
2022-08-26T01:37:48.225Z,74.09
2022-08-26T01:40:20.597Z,74.29
2022-08-26T01:42:49.325Z,74.11
2022-08-26T01:45:26.324Z,73.63
2022-08-26T01:47:57.389Z,73.40
2022-08-26T01:50:30.143Z,72.26
2022-08-26T01:53:02.580Z,70.55
2022-08-26T01:55:33.055Z,69.80
2022-08-26T01:58:05.658Z,69.65
2022-08-26T02:00:33.694Z,69.19
2022-08-26T02:03:21.698Z,69.31
2022-08-26T02:06:01.172Z,69.07
2022-08-26T02:08:50.933Z,68.99
2022-08-26T02:11:18.552Z,69.44
2022-08-26T02:13:49.548Z,70.09
2022-08-26T02:16:22.040Z,70.22
2022-08-26T02:18:50.628Z,70.93
2022-08-26T02:21:20.688Z,71.72
2022-08-26T02:23:47.797Z,70.86
2022-08-26T02:26:19.259Z,70.83
2022-08-26T02:29:12.628Z,70.12
2022-08-26T02:31:42.096Z,70.14
2022-08-26T02:34:20.024Z,70.65
2022-08-26T02:36:47.443Z,70.35
2022-08-26T02:39:19.521Z,70.09
2022-08-26T02:41:50.147Z,69.81
2022-08-26T02:44:17.677Z,69.61
2022-08-26T02:46:46.837Z,69.29
2022-08-26T02:49:15.696Z,69.95
2022-08-26T02:51:44.398Z,69.95
2022-08-26T02:54:12.777Z,69.46
2022-08-26T02:56:40.315Z,68.00
2022-08-26T02:59:07.945Z,68.25
2022-08-26T03:01:37.088Z,68.10
2022-08-26T03:04:07.104Z,68.02
2022-08-26T03:06:34.331Z,67.63
2022-08-26T03:09:01.540Z,67.45
2022-08-26T03:11:33.051Z,67.12
2022-08-26T03:14:01.816Z,66.47
2022-08-26T03:16:37.882Z,65.86
2022-08-26T03:19:08.178Z,65.36
2022-08-26T03:21:38.197Z,64.61
2022-08-26T03:24:05.985Z,62.65
2022-08-26T03:26:33.179Z,60.33
2022-08-26T03:29:18.750Z,58.45
2022-08-26T03:31:46.955Z,56.59
2022-08-26T03:34:14.851Z,53.92
2022-08-26T03:36:42.464Z,50.32
2022-08-26T03:39:12.070Z,47.21
2022-08-26T03:41:40.686Z,44.65
2022-08-26T03:44:11.497Z,44.53
2022-08-26T03:46:39.659Z,44.83
2022-08-26T03:49:07.685Z,45.36
2022-08-26T03:51:38.680Z,45.82
2022-08-26T03:54:08.365Z,45.92
2022-08-26T03:56:36.850Z,43.91
2022-08-26T03:59:04.975Z,40.74
2022-08-26T04:01:35.264Z,37.20
2022-08-26T04:04:03.255Z,35.42
2022-08-26T04:06:32.121Z,34.09
2022-08-26T04:09:02.073Z,34.26
2022-08-26T04:11:34.206Z,33.48
2022-08-26T04:14:05.700Z,31.26
2022-08-26T04:16:33.085Z,29.38
2022-08-26T04:19:00.999Z,27.91
2022-08-26T04:21:29.020Z,27.23
2022-08-26T04:23:56.792Z,27.47
2022-08-26T04:26:26.090Z,27.17
2022-08-26T04:28:54.752Z,27.29
2022-08-26T04:31:22.386Z,28.36
2022-08-26T04:33:50.542Z,29.08
2022-08-26T04:36:20.204Z,30.31
2022-08-26T04:38:48.569Z,30.85
2022-08-26T04:41:16.813Z,30.40
2022-08-26T04:43:46.625Z,28.30
2022-08-26T04:46:22.750Z,25.24
2022-08-26T04:48:51.943Z,24.08
2022-08-26T04:51:22.274Z,22.11
2022-08-26T04:56:53.453Z,19.15
2022-08-26T04:59:20.675Z,18.81
2022-08-26T05:01:54.154Z,17.81
2022-08-26T05:04:22.320Z,17.67
2022-08-26T05:06:50.210Z,16.99
2022-08-26T05:09:21.048Z,16.96
2022-08-26T05:11:52.042Z,17.02
2022-08-26T05:14:25.727Z,17.02
2022-08-26T05:16:54.079Z,16.39
2022-08-26T05:19:21.260Z,15.52
2022-08-26T05:21:48.805Z,14.88
2022-08-26T05:24:18.672Z,14.92
2022-08-26T05:26:48.102Z,13.94
2022-08-26T05:29:16.074Z,13.59
2022-08-26T05:31:44.160Z,13.33
2022-08-26T05:34:11.301Z,12.93
2022-08-26T05:36:39.291Z,12.66
2022-08-26T05:39:07.371Z,12.16
2022-08-26T05:41:38.708Z,11.78
2022-08-26T05:44:07.582Z,11.41
2022-08-26T05:46:37.037Z,11.62
2022-08-26T05:49:06.558Z,11.46
2022-08-26T05:51:45.353Z,10.72
2022-08-26T05:54:13.543Z,10.67
2022-08-26T05:56:42.427Z,10.78
2022-08-26T05:59:14.692Z,10.04
2022-08-26T06:01:43.933Z,10.16
2022-08-26T06:04:11.770Z,9.96
2022-08-26T06:06:42.871Z,10.05
2022-08-26T06:09:11.453Z,10.32
2022-08-26T06:11:39.197Z,10.20
2022-08-26T06:14:08.056Z,10.06
2022-08-26T06:16:38.742Z,10.82
2022-08-26T06:19:11.608Z,10.67
2022-08-26T06:21:42.588Z,10.57
2022-08-26T06:24:31.106Z,10.55
2022-08-26T06:27:02.040Z,10.88
2022-08-26T06:29:33.308Z,11.03
2022-08-26T06:32:02.977Z,11.37
2022-08-26T06:34:30.920Z,11.52
2022-08-26T06:37:03.269Z,11.82
2022-08-26T06:39:31.710Z,11.95
2022-08-26T06:42:01.100Z,12.54
2022-08-26T06:44:34.158Z,12.83
2022-08-26T06:47:01.618Z,13.52
2022-08-26T06:49:28.906Z,14.50
2022-08-26T06:51:59.899Z,16.08
2022-08-26T06:54:30.438Z,17.73
2022-08-26T06:56:58.089Z,19.23
2022-08-26T06:59:25.874Z,20.22
2022-08-26T07:01:53.329Z,21.22
2022-08-26T07:04:23.368Z,22.47
2022-08-26T07:06:53.567Z,23.41
2022-08-26T07:09:22.933Z,24.45
2022-08-26T07:11:51.623Z,25.62
2022-08-26T07:14:21.474Z,25.39
2022-08-26T07:16:50.459Z,25.75
2022-08-26T07:19:30.132Z,26.60
2022-08-26T07:22:04.220Z,26.96
2022-08-26T07:24:38.673Z,27.77
2022-08-26T07:27:08.883Z,27.71
2022-08-26T07:29:39.069Z,27.44
2022-08-26T07:32:06.964Z,27.73
2022-08-26T07:34:34.325Z,28.05
2022-08-26T07:37:02.028Z,27.95
2022-08-26T07:39:31.686Z,27.71
2022-08-26T07:42:01.724Z,27.95
2022-08-26T07:44:38.304Z,27.98
2022-08-26T07:47:10.260Z,28.50
2022-08-26T07:49:55.659Z,28.11
2022-08-26T07:52:26.602Z,28.29
2022-08-26T07:54:58.393Z,27.92
2022-08-26T07:57:26.502Z,28.17
2022-08-26T07:59:55.027Z,28.02
2022-08-26T08:02:24.642Z,27.46
2022-08-26T08:04:52.435Z,27.67
2022-08-26T08:07:19.700Z,27.84
2022-08-26T08:09:49.791Z,27.28
2022-08-26T08:12:18.457Z,27.76
2022-08-26T08:14:46.981Z,27.90
2022-08-26T08:17:16.503Z,28.04
2022-08-26T08:19:43.670Z,27.85
2022-08-26T08:22:17.948Z,27.73
2022-08-26T08:24:50.038Z,27.53
2022-08-26T08:27:23.807Z,27.07
2022-08-26T08:29:57.007Z,27.35
2022-08-26T08:32:24.211Z,27.48
2022-08-26T08:34:51.674Z,27.02
2022-08-26T08:37:19.268Z,27.12
2022-08-26T08:39:46.310Z,27.63
2022-08-26T08:42:31.128Z,27.81
2022-08-26T08:44:59.620Z,28.21
2022-08-26T08:47:36.043Z,28.73
2022-08-26T08:50:23.936Z,28.51
2022-08-26T08:53:17.826Z,29.08
2022-08-26T08:56:23.756Z,28.14
2022-08-26T08:58:57.521Z,28.38
2022-08-26T09:01:36.574Z,28.86
2022-08-26T09:04:26.836Z,27.13
2022-08-26T09:09:46.233Z,26.89
2022-08-26T09:12:20.538Z,27.38
2022-08-26T09:15:30.424Z,26.85
2022-08-26T09:18:10.870Z,26.63
2022-08-26T09:20:55.494Z,26.98
2022-08-26T09:23:22.874Z,26.03
2022-08-26T09:28:24.449Z,26.61
2022-08-26T09:31:24.030Z,26.08
2022-08-26T09:34:17.026Z,25.60
2022-08-26T09:36:49.342Z,25.98
2022-08-26T09:39:28.284Z,25.65
2022-08-26T09:42:21.202Z,24.95
2022-08-26T09:45:06.594Z,24.86
2022-08-26T09:47:39.037Z,24.81
2022-08-26T09:50:32.404Z,24.25
2022-08-26T09:53:09.728Z,25.32
2022-08-26T09:55:39.614Z,25.18
2022-08-26T09:58:07.921Z,25.06
2022-08-26T10:00:40.279Z,25.23
2022-08-26T10:03:12.061Z,24.97
2022-08-26T10:05:54.722Z,23.73
2022-08-26T10:08:48.397Z,23.53
2022-08-26T10:11:41.786Z,23.23
2022-08-26T10:14:20.816Z,23.40
2022-08-26T10:17:01.495Z,23.10
2022-08-26T10:19:53.595Z,23.22
2022-08-26T10:22:45.839Z,23.60
2022-08-26T10:25:20.485Z,24.22
2022-08-26T10:28:00.685Z,24.07
2022-08-26T10:30:40.763Z,23.12
2022-08-26T10:33:15.629Z,23.12
2022-08-26T10:35:52.548Z,23.18
2022-08-26T10:38:28.743Z,23.24
2022-08-26T10:41:00.216Z,23.43
2022-08-26T10:43:33.215Z,23.23
2022-08-26T10:46:05.579Z,23.31
2022-08-26T10:49:00.065Z,21.16
2022-08-26T10:51:36.708Z,21.47
2022-08-26T10:54:11.811Z,21.74
2022-08-26T10:56:57.207Z,22.22
2022-08-26T10:59:36.806Z,22.62
2022-08-26T11:02:37.215Z,22.75
2022-08-26T11:05:18.802Z,22.52
2022-08-26T11:07:48.656Z,22.71
2022-08-26T11:10:16.496Z,23.14
2022-08-26T11:12:45.494Z,23.08
2022-08-26T11:15:26.566Z,24.41
2022-08-26T11:17:55.423Z,23.43
2022-08-26T11:20:33.527Z,22.80
2022-08-26T11:23:12.996Z,23.26
2022-08-26T11:26:01.259Z,23.26
2022-08-26T11:28:50.462Z,23.25
2022-08-26T11:31:26.519Z,23.16
2022-08-26T11:34:01.307Z,23.17
2022-08-26T11:36:47.868Z,23.76
2022-08-26T11:39:17.981Z,23.30
2022-08-26T11:41:52.770Z,23.59
2022-08-26T11:44:29.546Z,22.74
2022-08-26T11:47:00.263Z,22.52
2022-08-26T11:49:29.090Z,22.61
2022-08-26T11:52:16.811Z,23.04
2022-08-26T11:55:20.315Z,22.90
2022-08-26T11:57:54.735Z,22.42
2022-08-26T12:00:36.120Z,23.04
2022-08-26T12:03:09.539Z,23.34
2022-08-26T12:05:43.500Z,23.17
2022-08-26T12:08:16.414Z,24.17
2022-08-26T12:10:43.556Z,24.19
2022-08-26T12:13:22.445Z,23.99
2022-08-26T12:15:58.303Z,24.22
2022-08-26T12:18:31.778Z,23.99
2022-08-26T12:21:01.209Z,23.03
2022-08-26T12:23:36.911Z,23.13
2022-08-26T12:26:30.780Z,23.14
2022-08-26T12:28:58.483Z,22.71
2022-08-26T12:31:39.552Z,23.09
2022-08-26T12:34:17.445Z,23.17
2022-08-26T12:36:53.131Z,22.72
2022-08-26T12:39:31.568Z,23.34
2022-08-26T12:42:01.156Z,23.21
2022-08-26T12:44:42.339Z,22.91
2022-08-26T12:47:41.958Z,22.67
2022-08-26T12:50:23.740Z,22.55
2022-08-26T12:53:02.951Z,22.56
2022-08-26T12:55:32.956Z,22.05
2022-08-26T12:58:22.555Z,21.72
2022-08-26T13:00:55.554Z,21.82
2022-08-26T13:03:38.373Z,22.14
2022-08-26T13:06:27.923Z,23.35
2022-08-26T13:09:24.164Z,23.90
2022-08-26T13:11:53.331Z,25.20
2022-08-26T13:14:24.079Z,25.06
2022-08-26T13:16:52.973Z,25.56
2022-08-26T13:19:29.154Z,25.43
2022-08-26T13:21:58.460Z,24.78
2022-08-26T13:24:38.590Z,24.82
2022-08-26T13:27:08.321Z,25.96
2022-08-26T13:29:38.177Z,26.16
2022-08-26T13:32:07.183Z,26.25
2022-08-26T13:34:37.111Z,26.35
2022-08-26T13:37:07.023Z,25.87
2022-08-26T13:39:36.988Z,26.47
2022-08-26T13:42:04.425Z,26.45
2022-08-26T13:44:43.083Z,26.51
2022-08-26T13:47:17.284Z,26.00
2022-08-26T13:49:44.649Z,26.32
2022-08-26T13:52:12.697Z,27.20
2022-08-26T13:54:41.762Z,26.61
2022-08-26T13:57:10.046Z,27.20
2022-08-26T13:59:54.666Z,27.28
2022-08-26T14:02:22.667Z,27.10
2022-08-26T14:05:02.724Z,26.75
2022-08-26T14:07:33.126Z,26.69
2022-08-26T14:10:02.589Z,26.83
2022-08-26T14:12:29.851Z,26.87
2022-08-26T14:14:56.974Z,27.72
2022-08-26T14:17:26.344Z,27.78
2022-08-26T14:19:58.084Z,28.36
2022-08-26T14:22:25.393Z,27.97
2022-08-26T14:24:52.501Z,27.70
2022-08-26T14:27:19.862Z,28.09
2022-08-26T14:29:47.027Z,28.58
2022-08-26T14:32:28.864Z,28.51
2022-08-26T14:34:56.579Z,28.88
2022-08-26T14:37:24.171Z,28.77
2022-08-26T14:39:51.735Z,27.26
2022-08-26T14:42:27.815Z,27.73
2022-08-26T14:45:02.165Z,27.62
2022-08-26T14:47:31.039Z,27.33
2022-08-26T14:49:58.120Z,27.82
2022-08-26T14:52:25.675Z,27.94
2022-08-26T14:54:55.279Z,27.79
2022-08-26T14:57:22.554Z,27.98
2022-08-26T14:59:50.594Z,28.36
2022-08-26T15:02:27.717Z,28.18
2022-08-26T15:05:02.304Z,28.67
2022-08-26T15:07:29.315Z,29.05
2022-08-26T15:09:56.419Z,29.06
2022-08-26T15:12:23.509Z,29.32
2022-08-26T15:14:51.190Z,29.46
2022-08-26T15:17:18.289Z,29.44
2022-08-26T15:19:45.376Z,29.94
2022-08-26T15:22:12.898Z,30.12
2022-08-26T15:24:42.422Z,30.56
2022-08-26T15:27:09.741Z,30.83
2022-08-26T15:29:37.625Z,30.84
2022-08-26T15:32:08.300Z,31.12
2022-08-26T15:34:35.601Z,31.04
2022-08-26T15:37:02.870Z,31.23
2022-08-26T15:39:30.007Z,31.36
2022-08-26T15:41:57.207Z,31.46
2022-08-26T15:44:29.209Z,32.20
2022-08-26T15:46:58.866Z,32.81
2022-08-26T15:49:27.639Z,33.33
2022-08-26T15:51:55.144Z,33.88
2022-08-26T15:54:24.371Z,34.74
2022-08-26T15:56:52.589Z,34.12
2022-08-26T15:59:21.688Z,34.40
2022-08-26T16:01:48.886Z,34.06
2022-08-26T16:04:16.085Z,34.68
2022-08-26T16:06:43.707Z,36.23
2022-08-26T16:09:11.274Z,36.49
2022-08-26T16:11:38.787Z,36.85
2022-08-26T16:14:06.373Z,39.07
2022-08-26T16:16:33.940Z,38.08
2022-08-26T16:19:06.843Z,40.38
2022-08-26T16:21:35.458Z,41.52
2022-08-26T16:24:03.563Z,41.29
2022-08-26T16:26:33.553Z,41.82
2022-08-26T16:29:04.956Z,42.14
2022-08-26T16:31:32.402Z,42.37
2022-08-26T16:33:59.760Z,42.33
2022-08-26T16:36:26.915Z,42.24
2022-08-26T16:38:56.567Z,42.63
2022-08-26T16:41:25.153Z,43.11
2022-08-26T16:43:54.722Z,43.07
2022-08-26T16:46:25.900Z,43.37
2022-08-26T16:48:57.711Z,43.50
2022-08-26T16:51:27.341Z,44.29
2022-08-26T16:53:57.816Z,44.12
2022-08-26T16:56:30.632Z,44.49
2022-08-26T16:59:02.922Z,44.94
2022-08-26T17:01:30.907Z,45.73
2022-08-26T17:03:58.056Z,46.25
2022-08-26T17:06:25.178Z,46.39
2022-08-26T17:08:52.646Z,46.83
2022-08-26T17:11:19.875Z,47.34
2022-08-26T17:13:47.401Z,47.43
2022-08-26T17:16:15.195Z,47.62
2022-08-26T17:18:42.639Z,47.32
2022-08-26T17:21:12.408Z,47.45
2022-08-26T17:23:43.108Z,47.52
2022-08-26T17:26:12.391Z,47.74
2022-08-26T17:28:40.103Z,47.86
2022-08-26T17:31:08.453Z,48.25
2022-08-26T17:33:36.019Z,48.75
2022-08-26T17:36:06.557Z,49.45
2022-08-26T17:38:33.911Z,49.80
2022-08-26T17:41:01.180Z,49.95
2022-08-26T17:43:28.554Z,50.15
2022-08-26T17:46:06.974Z,49.42
2022-08-26T17:48:36.315Z,49.36
2022-08-26T17:51:09.709Z,50.38
2022-08-26T17:53:37.711Z,50.49
2022-08-26T17:56:10.833Z,50.46
2022-08-26T17:58:51.351Z,50.53
2022-08-26T18:01:27.552Z,49.67
2022-08-26T18:04:00.290Z,48.34
2022-08-26T18:06:29.380Z,48.31
2022-08-26T18:08:58.298Z,49.21
2022-08-26T18:11:29.262Z,51.07
2022-08-26T18:13:56.544Z,51.71
2022-08-26T18:16:24.629Z,51.67
2022-08-26T18:18:53.551Z,51.15
2022-08-26T18:21:24.618Z,51.41
2022-08-26T18:23:52.236Z,52.20
2022-08-26T18:26:35.066Z,52.61
2022-08-26T18:29:03.387Z,52.75
2022-08-26T18:31:31.123Z,52.64
2022-08-26T18:34:02.212Z,52.73
2022-08-26T18:36:36.912Z,53.28
2022-08-26T18:39:05.730Z,53.13
2022-08-26T18:41:34.890Z,53.18
2022-08-26T18:44:03.538Z,53.51
2022-08-26T18:46:38.482Z,54.39
2022-08-26T18:49:09.743Z,54.15
2022-08-26T18:51:38.105Z,54.18
2022-08-26T18:54:08.815Z,54.53
2022-08-26T18:56:37.632Z,54.23
2022-08-26T18:59:07.646Z,54.63
2022-08-26T19:01:36.245Z,54.03
2022-08-26T19:04:05.591Z,55.02
2022-08-26T19:06:35.720Z,55.05
2022-08-26T19:09:05.847Z,54.66
2022-08-26T19:11:37.440Z,53.81
2022-08-26T19:14:16.050Z,54.52
2022-08-26T19:16:46.832Z,54.68
2022-08-26T19:19:15.368Z,54.12
2022-08-26T19:21:42.778Z,54.08
2022-08-26T19:24:15.698Z,52.92
2022-08-26T19:26:48.598Z,54.83
2022-08-26T19:29:20.644Z,54.58
2022-08-26T19:31:47.991Z,53.87
2022-08-26T19:34:16.482Z,53.65
2022-08-26T19:36:47.839Z,53.57
2022-08-26T19:39:15.354Z,54.49
2022-08-26T19:41:42.549Z,55.02
2022-08-26T19:44:35.978Z,56.19
2022-08-26T19:47:03.899Z,56.29
2022-08-26T19:49:31.376Z,56.20
2022-08-26T19:51:58.555Z,55.94
2022-08-26T19:54:25.704Z,56.14
2022-08-26T19:56:52.971Z,56.36
2022-08-26T19:59:20.821Z,56.25
2022-08-26T20:02:00.715Z,56.52
2022-08-26T20:04:30.985Z,57.00
2022-08-26T20:07:01.348Z,57.21
2022-08-26T20:09:30.052Z,57.10
2022-08-26T20:11:57.582Z,56.22
2022-08-26T20:14:28.672Z,57.35
2022-08-26T20:16:57.042Z,56.87
2022-08-26T20:19:42.592Z,55.76
2022-08-26T20:22:10.345Z,56.30
2022-08-26T20:24:41.322Z,57.09
2022-08-26T20:27:10.793Z,56.57
2022-08-26T20:29:38.521Z,54.51
2022-08-26T20:32:08.082Z,56.21
2022-08-26T20:34:41.876Z,57.56
2022-08-26T20:37:09.371Z,57.99
2022-08-26T20:39:37.214Z,57.57
2022-08-26T20:42:06.826Z,56.94
2022-08-26T20:44:54.685Z,55.84
2022-08-26T20:47:25.247Z,54.07
2022-08-26T20:49:56.394Z,55.43
2022-08-26T20:52:23.635Z,54.68
2022-08-26T20:54:50.804Z,54.77
2022-08-26T20:57:18.170Z,55.75
2022-08-26T20:59:45.337Z,54.85
2022-08-26T21:02:12.409Z,56.91
2022-08-26T21:04:39.590Z,57.41
2022-08-26T21:07:06.858Z,57.09
2022-08-26T21:09:33.957Z,55.97
2022-08-26T21:12:01.603Z,54.22
2022-08-26T21:14:28.849Z,54.09
2022-08-26T21:16:57.106Z,53.60
2022-08-26T21:19:24.314Z,53.15
2022-08-26T21:21:51.553Z,54.41
2022-08-26T21:24:18.703Z,54.52
2022-08-26T21:26:46.418Z,54.11
2022-08-26T21:29:14.443Z,55.86
2022-08-26T21:31:46.103Z,54.42
2022-08-26T21:34:19.001Z,51.92
2022-08-26T21:36:47.401Z,52.51
2022-08-26T21:39:18.250Z,53.54
2022-08-26T21:41:47.376Z,55.35
2022-08-26T21:44:16.645Z,56.33
2022-08-26T21:46:45.385Z,57.28
2022-08-26T21:49:16.011Z,57.12
2022-08-26T21:51:46.169Z,57.48
2022-08-26T21:54:20.038Z,57.66
2022-08-26T21:56:52.975Z,58.12
2022-08-26T21:59:22.637Z,58.52
2022-08-26T22:01:51.576Z,58.25
2022-08-26T22:04:18.872Z,58.45
2022-08-26T22:06:52.893Z,57.65
2022-08-26T22:09:27.257Z,57.29
2022-08-26T22:11:57.013Z,58.05
2022-08-26T22:14:30.634Z,55.64
2022-08-26T22:17:07.421Z,55.73
2022-08-26T22:19:46.488Z,55.94
2022-08-26T22:22:16.979Z,55.70
2022-08-26T22:24:48.297Z,55.90
2022-08-26T22:27:15.402Z,56.65
2022-08-26T22:29:43.617Z,58.07
2022-08-26T22:32:11.344Z,57.93
2022-08-26T22:34:40.778Z,56.10
2022-08-26T22:37:10.520Z,55.58
2022-08-26T22:39:37.893Z,55.01
2022-08-26T22:42:08.766Z,54.25
2022-08-26T22:44:37.617Z,53.94
2022-08-26T22:47:07.371Z,55.55
2022-08-26T22:49:37.210Z,56.17
2022-08-26T22:52:06.732Z,56.72
2022-08-26T22:54:35.177Z,56.50
2022-08-26T22:57:02.528Z,56.54
2022-08-26T22:59:37.770Z,57.37
2022-08-26T23:02:11.113Z,57.40
2022-08-26T23:04:40.372Z,57.80
2022-08-26T23:07:12.375Z,58.36
2022-08-26T23:09:45.272Z,58.15
2022-08-26T23:12:12.649Z,58.96
2022-08-26T23:14:41.458Z,59.31
2022-08-26T23:17:14.833Z,59.24
2022-08-26T23:19:42.028Z,59.06
2022-08-26T23:22:09.188Z,58.71
2022-08-26T23:24:36.251Z,58.38
2022-08-26T23:27:03.964Z,58.60
2022-08-26T23:29:32.231Z,58.72
2022-08-26T23:31:59.431Z,59.71
2022-08-26T23:34:45.083Z,58.41
2022-08-26T23:37:13.934Z,57.50
2022-08-26T23:39:41.096Z,59.50
2022-08-26T23:42:08.773Z,59.19
2022-08-26T23:44:38.346Z,60.42
2022-08-26T23:47:06.531Z,59.32
2022-08-26T23:49:34.472Z,57.44
2022-08-26T23:52:20.465Z,55.97
2022-08-26T23:54:48.836Z,58.11
2022-08-26T23:57:20.594Z,58.15
2022-08-26T23:59:48.676Z,59.69
